sensor_id;sensor_type;location;lat;lon;timestamp;pressure;altitude;pressure_sealevel;temperature;humidity
44001;BME280;29660;42.892;24.710;2023-08-21T00:03:14;97336.06;;;18.52;100.00
44001;BME280;29660;42.892;24.710;2023-08-21T00:08:36;97353.22;;;18.26;100.00
44001;BME280;29660;42.892;24.710;2023-08-21T00:13:58;97214.66;;;17.72;100.00
44001;BME280;29660;42.892;24.710;2023-08-21T00:19:21;97327.44;;;18.37;100.00
44001;BME280;29660;42.892;24.710;2023-08-21T00:24:43;97323.94;;;18.37;100.00
44001;BME280;29660;42.892;24.710;2023-08-21T00:30:05;97268.47;;;17.98;100.00
44001;BME280;29660;42.892;24.710;2023-08-21T00:35:28;97328.94;;;18.26;100.00
44001;BME280;29660;42.892;24.710;2023-08-21T00:40:51;97241.63;;;17.72;100.00
44001;BME280;29660;42.892;24.710;2023-08-21T00:46:13;97224.13;;;17.57;100.00
44001;BME280;29660;42.892;24.710;2023-08-21T00:51:36;97317.56;;;18.21;100.00
44001;BME280;29660;42.892;24.710;2023-08-21T00:56:58;97318.06;;;18.14;100.00
44001;BME280;29660;42.892;24.710;2023-08-21T01:02:39;97216.84;;;17.49;100.00
44001;BME280;29660;42.892;24.710;2023-08-21T01:08:15;97319.25;;;18.04;100.00
44001;BME280;29660;42.892;24.710;2023-08-21T01:19:41;97315.47;;;17.97;100.00
44001;BME280;29660;42.892;24.710;2023-08-21T01:25:04;97233.72;;;17.37;100.00
44001;BME280;29660;42.892;24.710;2023-08-21T01:30:29;97312.03;;;17.87;100.00
44001;BME280;29660;42.892;24.710;2023-08-21T01:35:53;97315.66;;;17.91;100.00
44001;BME280;29660;42.892;24.710;2023-08-21T01:41:17;97281.50;;;17.66;100.00
44001;BME280;29660;42.892;24.710;2023-08-21T01:46:40;97222.06;;;17.24;100.00
44001;BME280;29660;42.892;24.710;2023-08-21T01:52:03;97318.13;;;17.76;100.00
44001;BME280;29660;42.892;24.710;2023-08-21T01:57:26;97308.47;;;17.66;100.00
44001;BME280;29660;42.892;24.710;2023-08-21T02:03:06;97247.63;;;17.18;100.00
44001;BME280;29660;42.892;24.710;2023-08-21T02:08:33;97308.81;;;17.56;100.00
44001;BME280;29660;42.892;24.710;2023-08-21T02:13:55;97321.03;;;17.62;100.00
44001;BME280;29660;42.892;24.710;2023-08-21T02:19:17;97312.53;;;17.42;100.00
44001;BME280;29660;42.892;24.710;2023-08-21T02:24:40;97317.41;;;17.58;100.00
44001;BME280;29660;42.892;24.710;2023-08-21T02:30:02;97018.03;;;15.63;100.00
44001;BME280;29660;42.892;24.710;2023-08-21T02:35:25;97311.53;;;17.56;100.00
44001;BME280;29660;42.892;24.710;2023-08-21T02:40:47;97209.72;;;16.76;100.00
44001;BME280;29660;42.892;24.710;2023-08-21T02:46:09;97310.47;;;17.39;100.00
44001;BME280;29660;42.892;24.710;2023-08-21T02:51:32;97315.69;;;17.45;100.00
44001;BME280;29660;42.892;24.710;2023-08-21T02:56:54;97314.09;;;17.43;100.00
44001;BME280;29660;42.892;24.710;2023-08-21T03:02:17;97306.41;;;17.25;100.00
44001;BME280;29660;42.892;24.710;2023-08-21T03:07:40;97294.75;;;17.03;100.00
44001;BME280;29660;42.892;24.710;2023-08-21T03:13:02;97324.50;;;17.15;100.00
44001;BME280;29660;42.892;24.710;2023-08-21T03:18:30;97327.19;;;17.24;100.00
44001;BME280;29660;42.892;24.710;2023-08-21T03:23:58;97328.78;;;17.25;100.00
44001;BME280;29660;42.892;24.710;2023-08-21T03:29:24;97254.09;;;16.53;100.00
44001;BME280;29660;42.892;24.710;2023-08-21T03:34:46;97333.41;;;17.07;100.00
44001;BME280;29660;42.892;24.710;2023-08-21T03:40:10;97339.41;;;17.13;100.00
44001;BME280;29660;42.892;24.710;2023-08-21T03:45:32;97332.75;;;17.19;100.00
44001;BME280;29660;42.892;24.710;2023-08-21T03:50:55;97310.75;;;17.00;100.00
44001;BME280;29660;42.892;24.710;2023-08-21T03:56:17;97335.44;;;17.19;100.00
44001;BME280;29660;42.892;24.710;2023-08-21T04:01:40;97344.47;;;17.23;100.00
44001;BME280;29660;42.892;24.710;2023-08-21T04:07:02;97346.94;;;17.37;100.00
44001;BME280;29660;42.892;24.710;2023-08-21T04:12:25;97360.41;;;17.54;100.00
44001;BME280;29660;42.892;24.710;2023-08-21T04:17:47;97291.16;;;17.29;100.00
44001;BME280;29660;42.892;24.710;2023-08-21T04:23:10;97361.94;;;18.02;100.00
44001;BME280;29660;42.892;24.710;2023-08-21T04:28:33;97361.41;;;18.38;100.00
44001;BME280;29660;42.892;24.710;2023-08-21T04:33:57;97243.00;;;18.07;100.00
44001;BME280;29660;42.892;24.710;2023-08-21T04:39:19;97357.50;;;19.11;100.00
44001;BME280;29660;42.892;24.710;2023-08-21T04:45:00;97358.56;;;19.31;100.00
44001;BME280;29660;42.892;24.710;2023-08-21T04:50:27;97359.88;;;19.58;100.00
44001;BME280;29660;42.892;24.710;2023-08-21T04:55:49;97355.94;;;19.92;100.00
44001;BME280;29660;42.892;24.710;2023-08-21T05:01:30;97297.91;;;19.65;100.00
44001;BME280;29660;42.892;24.710;2023-08-21T05:06:54;97359.22;;;20.22;100.00
44001;BME280;29660;42.892;24.710;2023-08-21T05:12:16;97356.59;;;20.50;100.00
44001;BME280;29660;42.892;24.710;2023-08-21T05:17:38;97356.19;;;20.76;100.00
44001;BME280;29660;42.892;24.710;2023-08-21T05:23:01;97352.50;;;20.97;100.00
44001;BME280;29660;42.892;24.710;2023-08-21T05:28:25;97348.38;;;21.31;100.00
44001;BME280;29660;42.892;24.710;2023-08-21T05:33:48;97268.06;;;20.82;98.69
44001;BME280;29660;42.892;24.710;2023-08-21T05:39:10;97341.25;;;21.70;98.66
44001;BME280;29660;42.892;24.710;2023-08-21T05:44:33;97352.69;;;21.95;98.66
44001;BME280;29660;42.892;24.710;2023-08-21T05:49:56;97027.25;;;20.05;96.41
44001;BME280;29660;42.892;24.710;2023-08-21T05:55:18;97361.63;;;22.47;94.20
44001;BME280;29660;42.892;24.710;2023-08-21T06:00:40;97361.25;;;22.64;94.51
44001;BME280;29660;42.892;24.710;2023-08-21T06:06:03;97361.66;;;22.86;92.29
44001;BME280;29660;42.892;24.710;2023-08-21T06:11:25;97359.91;;;23.13;91.93
44001;BME280;29660;42.892;24.710;2023-08-21T06:16:47;97370.88;;;23.39;87.87
44001;BME280;29660;42.892;24.710;2023-08-21T06:22:10;97381.66;;;23.55;87.31
44001;BME280;29660;42.892;24.710;2023-08-21T06:27:32;97378.41;;;23.92;86.50
44001;BME280;29660;42.892;24.710;2023-08-21T06:33:02;97379.56;;;24.14;85.12
44001;BME280;29660;42.892;24.710;2023-08-21T06:38:25;97281.84;;;23.86;82.89
44001;BME280;29660;42.892;24.710;2023-08-21T06:43:48;97365.59;;;24.72;73.83
44001;BME280;29660;42.892;24.710;2023-08-21T06:49:13;97364.06;;;25.08;73.55
44001;BME280;29660;42.892;24.710;2023-08-21T06:54:35;97353.03;;;25.35;71.18
44001;BME280;29660;42.892;24.710;2023-08-21T06:59:57;97278.44;;;25.20;70.01
44001;BME280;29660;42.892;24.710;2023-08-21T07:05:19;97365.44;;;26.10;66.67
44001;BME280;29660;42.892;24.710;2023-08-21T07:10:42;97345.69;;;26.38;59.67
44001;BME280;29660;42.892;24.710;2023-08-21T07:16:22;97349.81;;;26.70;59.18
44001;BME280;29660;42.892;24.710;2023-08-21T07:21:45;97356.59;;;27.08;59.15
44001;BME280;29660;42.892;24.710;2023-08-21T07:27:07;97296.38;;;27.15;58.14
44001;BME280;29660;42.892;24.710;2023-08-21T07:32:29;97347.31;;;27.70;56.31
44001;BME280;29660;42.892;24.710;2023-08-21T07:37:51;97337.19;;;27.92;53.02
44001;BME280;29660;42.892;24.710;2023-08-21T07:43:14;97131.31;;;26.82;55.19
44001;BME280;29660;42.892;24.710;2023-08-21T07:48:36;97314.41;;;28.20;54.14
44001;BME280;29660;42.892;24.710;2023-08-21T07:53:58;97323.69;;;28.72;52.00
44001;BME280;29660;42.892;24.710;2023-08-21T07:59:40;97330.22;;;29.03;50.28
44001;BME280;29660;42.892;24.710;2023-08-21T08:05:02;97334.38;;;29.37;47.78
44001;BME280;29660;42.892;24.710;2023-08-21T08:10:24;97328.03;;;29.43;44.63
44001;BME280;29660;42.892;24.710;2023-08-21T08:16:05;97327.00;;;29.78;44.54
44001;BME280;29660;42.892;24.710;2023-08-21T08:21:28;97282.34;;;29.67;43.29
44001;BME280;29660;42.892;24.710;2023-08-21T08:26:50;97316.09;;;30.13;42.36
44001;BME280;29660;42.892;24.710;2023-08-21T08:32:12;97310.06;;;30.28;40.35
44001;BME280;29660;42.892;24.710;2023-08-21T08:37:34;97308.22;;;30.52;40.63
44001;BME280;29660;42.892;24.710;2023-08-21T08:42:57;97188.75;;;29.78;38.71
44001;BME280;29660;42.892;24.710;2023-08-21T08:48:20;97299.31;;;30.72;39.50
44001;BME280;29660;42.892;24.710;2023-08-21T08:53:42;97288.22;;;30.83;39.15
44001;BME280;29660;42.892;24.710;2023-08-21T08:59:07;97140.38;;;30.18;39.00
44001;BME280;29660;42.892;24.710;2023-08-21T09:04:30;97252.63;;;30.95;39.02
44001;BME280;29660;42.892;24.710;2023-08-21T09:09:52;97281.66;;;31.27;38.07
44001;BME280;29660;42.892;24.710;2023-08-21T09:15:15;97272.72;;;31.19;38.78
44001;BME280;29660;42.892;24.710;2023-08-21T09:20:37;97262.25;;;31.38;37.96
44001;BME280;29660;42.892;24.710;2023-08-21T09:26:01;97274.34;;;31.67;38.83
44001;BME280;29660;42.892;24.710;2023-08-21T09:31:30;97268.84;;;31.91;38.76
44001;BME280;29660;42.892;24.710;2023-08-21T09:36:54;97208.25;;;31.64;37.90
44001;BME280;29660;42.892;24.710;2023-08-21T09:42:17;97264.22;;;32.28;37.36
44001;BME280;29660;42.892;24.710;2023-08-21T09:47:40;97252.13;;;32.21;36.42
44001;BME280;29660;42.892;24.710;2023-08-21T09:53:03;97244.94;;;32.47;36.28
44001;BME280;29660;42.892;24.710;2023-08-21T09:58:25;97240.25;;;32.44;36.12
44001;BME280;29660;42.892;24.710;2023-08-21T10:03:48;97239.09;;;32.62;36.24
44001;BME280;29660;42.892;24.710;2023-08-21T10:09:11;97122.38;;;32.05;36.23
44001;BME280;29660;42.892;24.710;2023-08-21T10:14:35;97156.44;;;32.55;36.40
44001;BME280;29660;42.892;24.710;2023-08-21T10:20:08;97141.06;;;32.54;36.32
44001;BME280;29660;42.892;24.710;2023-08-21T10:25:31;97146.84;;;32.59;35.17
44001;BME280;29660;42.892;24.710;2023-08-21T10:31:37;97213.91;;;33.45;35.17
44001;BME280;29660;42.892;24.710;2023-08-21T10:37:09;97209.44;;;33.35;34.78
44001;BME280;29660;42.892;24.710;2023-08-21T10:42:40;97198.22;;;33.09;34.74
44001;BME280;29660;42.892;24.710;2023-08-21T10:48:23;97202.44;;;32.97;35.68
44001;BME280;29660;42.892;24.710;2023-08-21T10:53:45;97192.75;;;32.69;36.07
44001;BME280;29660;42.892;24.710;2023-08-21T10:59:07;97198.16;;;32.40;35.75
44001;BME280;29660;42.892;24.710;2023-08-21T11:04:39;97204.28;;;32.28;35.68
44001;BME280;29660;42.892;24.710;2023-08-21T11:10:02;97191.06;;;32.39;35.67
44001;BME280;29660;42.892;24.710;2023-08-21T11:15:27;97173.34;;;32.57;33.95
44001;BME280;29660;42.892;24.710;2023-08-21T11:20:49;97173.06;;;33.20;35.18
44001;BME280;29660;42.892;24.710;2023-08-21T11:26:12;97177.38;;;33.54;36.62
44001;BME280;29660;42.892;24.710;2023-08-21T11:31:37;97176.25;;;33.35;36.98
44001;BME280;29660;42.892;24.710;2023-08-21T11:36:59;97170.88;;;33.89;36.52
44001;BME280;29660;42.892;24.710;2023-08-21T11:42:40;97156.94;;;34.22;37.42
44001;BME280;29660;42.892;24.710;2023-08-21T11:48:21;97097.09;;;33.99;34.86
44001;BME280;29660;42.892;24.710;2023-08-21T11:53:47;97059.47;;;33.31;37.25
44001;BME280;29660;42.892;24.710;2023-08-21T11:59:09;97156.66;;;33.45;36.83
44001;BME280;29660;42.892;24.710;2023-08-21T12:04:31;97136.00;;;33.01;34.63
44001;BME280;29660;42.892;24.710;2023-08-21T12:09:53;97138.84;;;32.81;33.57
44001;BME280;29660;42.892;24.710;2023-08-21T12:15:16;97165.38;;;32.95;34.26
44001;BME280;29660;42.892;24.710;2023-08-21T12:20:38;97083.19;;;32.30;39.29
44001;BME280;29660;42.892;24.710;2023-08-21T12:26:00;97180.16;;;32.68;47.61
44001;BME280;29660;42.892;24.710;2023-08-21T12:31:23;97176.28;;;32.66;51.46
44001;BME280;29660;42.892;24.710;2023-08-21T12:36:45;97181.66;;;32.89;52.62
44001;BME280;29660;42.892;24.710;2023-08-21T12:42:08;97156.88;;;32.69;51.44
44001;BME280;29660;42.892;24.710;2023-08-21T12:47:30;97171.47;;;32.70;51.71
44001;BME280;29660;42.892;24.710;2023-08-21T12:52:52;97167.13;;;32.69;50.38
44001;BME280;29660;42.892;24.710;2023-08-21T12:58:33;97155.22;;;32.56;50.55
44001;BME280;29660;42.892;24.710;2023-08-21T13:03:55;97170.88;;;32.22;51.41
44001;BME280;29660;42.892;24.710;2023-08-21T13:09:17;97167.75;;;31.81;49.84
44001;BME280;29660;42.892;24.710;2023-08-21T13:14:39;97164.38;;;31.49;51.69
44001;BME280;29660;42.892;24.710;2023-08-21T13:20:03;97157.06;;;31.39;50.79
44001;BME280;29660;42.892;24.710;2023-08-21T13:25:26;97176.59;;;31.25;52.25
44001;BME280;29660;42.892;24.710;2023-08-21T13:30:48;97169.28;;;31.15;54.76
44001;BME280;29660;42.892;24.710;2023-08-21T13:36:10;97164.41;;;30.99;56.19
44001;BME280;29660;42.892;24.710;2023-08-21T13:41:32;97141.25;;;31.20;54.66
44001;BME280;29660;42.892;24.710;2023-08-21T13:46:55;97156.63;;;31.44;53.23
44001;BME280;29660;42.892;24.710;2023-08-21T13:52:17;97121.25;;;31.39;50.08
44001;BME280;29660;42.892;24.710;2023-08-21T13:57:39;97149.53;;;31.43;50.23
44001;BME280;29660;42.892;24.710;2023-08-21T14:03:03;97135.63;;;31.27;48.86
44001;BME280;29660;42.892;24.710;2023-08-21T14:08:25;97071.91;;;30.78;48.86
44001;BME280;29660;42.892;24.710;2023-08-21T14:13:47;97133.47;;;31.38;51.09
44001;BME280;29660;42.892;24.710;2023-08-21T14:19:10;97122.59;;;31.51;50.00
44001;BME280;29660;42.892;24.710;2023-08-21T14:24:32;97056.81;;;31.10;48.36
44001;BME280;29660;42.892;24.710;2023-08-21T14:29:54;97126.72;;;31.63;49.34
44001;BME280;29660;42.892;24.710;2023-08-21T14:35:16;97099.78;;;31.50;50.89
44001;BME280;29660;42.892;24.710;2023-08-21T14:40:39;97121.13;;;31.66;51.82
44001;BME280;29660;42.892;24.710;2023-08-21T14:46:01;97108.00;;;31.74;51.31
44001;BME280;29660;42.892;24.710;2023-08-21T14:51:23;97107.84;;;31.81;50.83
44001;BME280;29660;42.892;24.710;2023-08-21T14:56:46;97077.16;;;31.79;50.82
44001;BME280;29660;42.892;24.710;2023-08-21T15:02:08;97032.16;;;31.46;50.07
44001;BME280;29660;42.892;24.710;2023-08-21T15:07:30;97102.34;;;31.81;49.87
44001;BME280;29660;42.892;24.710;2023-08-21T15:12:53;97104.91;;;31.72;49.82
44001;BME280;29660;42.892;24.710;2023-08-21T15:18:15;97080.78;;;31.56;50.49
44001;BME280;29660;42.892;24.710;2023-08-21T15:23:37;97094.78;;;31.65;50.04
44001;BME280;29660;42.892;24.710;2023-08-21T15:29:00;97041.34;;;31.16;48.77
44001;BME280;29660;42.892;24.710;2023-08-21T15:34:22;97110.59;;;31.41;48.59
44001;BME280;29660;42.892;24.710;2023-08-21T15:39:44;97096.69;;;31.25;50.01
44001;BME280;29660;42.892;24.710;2023-08-21T15:45:07;97005.75;;;30.35;49.36
44001;BME280;29660;42.892;24.710;2023-08-21T15:50:29;97093.22;;;30.74;50.18
44001;BME280;29660;42.892;24.710;2023-08-21T15:55:51;97098.97;;;30.56;51.79
44001;BME280;29660;42.892;24.710;2023-08-21T16:01:14;97110.34;;;30.31;55.76
44001;BME280;29660;42.892;24.710;2023-08-21T16:06:36;97121.69;;;30.02;59.52
44001;BME280;29660;42.892;24.710;2023-08-21T16:11:58;97117.28;;;29.78;62.09
44001;BME280;29660;42.892;24.710;2023-08-21T16:17:20;97125.38;;;29.51;64.16
44001;BME280;29660;42.892;24.710;2023-08-21T16:22:43;97080.78;;;28.98;67.91
44001;BME280;29660;42.892;24.710;2023-08-21T16:28:05;97051.75;;;28.49;69.84
44001;BME280;29660;42.892;24.710;2023-08-21T16:33:27;97107.31;;;28.60;70.18
44001;BME280;29660;42.892;24.710;2023-08-21T16:38:52;97121.97;;;28.35;71.58
44001;BME280;29660;42.892;24.710;2023-08-21T16:44:14;97132.34;;;27.99;74.40
44001;BME280;29660;42.892;24.710;2023-08-21T16:49:39;97145.31;;;27.77;76.17
44001;BME280;29660;42.892;24.710;2023-08-21T16:55:01;97125.00;;;27.60;78.41
44001;BME280;29660;42.892;24.710;2023-08-21T17:00:25;97117.25;;;27.23;80.13
44001;BME280;29660;42.892;24.710;2023-08-21T17:06:05;97136.03;;;27.10;82.64
44001;BME280;29660;42.892;24.710;2023-08-21T17:11:28;97139.13;;;26.87;85.27
44001;BME280;29660;42.892;24.710;2023-08-21T17:16:50;97132.06;;;26.54;86.01
44001;BME280;29660;42.892;24.710;2023-08-21T17:22:12;97154.66;;;26.37;86.76
44001;BME280;29660;42.892;24.710;2023-08-21T17:27:35;97160.84;;;26.19;86.04
44001;BME280;29660;42.892;24.710;2023-08-21T17:32:58;97171.72;;;26.02;87.32
44001;BME280;29660;42.892;24.710;2023-08-21T17:38:23;97157.44;;;25.60;88.57
44001;BME280;29660;42.892;24.710;2023-08-21T17:43:45;97193.78;;;25.71;87.29
44001;BME280;29660;42.892;24.710;2023-08-21T17:49:08;97168.22;;;25.39;86.97
44001;BME280;29660;42.892;24.710;2023-08-21T17:54:30;97176.69;;;25.23;87.73
44001;BME280;29660;42.892;24.710;2023-08-21T17:59:52;97219.97;;;25.25;88.26
44001;BME280;29660;42.892;24.710;2023-08-21T18:05:14;97213.69;;;25.17;86.51
44001;BME280;29660;42.892;24.710;2023-08-21T18:10:37;97213.16;;;25.04;86.79
44001;BME280;29660;42.892;24.710;2023-08-21T18:15:59;97220.03;;;24.91;86.41
44001;BME280;29660;42.892;24.710;2023-08-21T18:21:21;97223.06;;;24.82;86.14
44001;BME280;29660;42.892;24.710;2023-08-21T18:26:43;97230.00;;;24.72;86.79
44001;BME280;29660;42.892;24.710;2023-08-21T18:32:09;97237.66;;;24.63;87.36
44001;BME280;29660;42.892;24.710;2023-08-21T18:37:31;97213.25;;;24.40;86.90
44001;BME280;29660;42.892;24.710;2023-08-21T18:42:53;96943.03;;;22.43;87.14
44001;BME280;29660;42.892;24.710;2023-08-21T18:48:17;97208.06;;;23.98;89.39
44001;BME280;29660;42.892;24.710;2023-08-21T18:53:42;97268.16;;;24.12;89.51
44001;BME280;29660;42.892;24.710;2023-08-21T18:59:04;97256.66;;;23.96;90.32
44001;BME280;29660;42.892;24.710;2023-08-21T19:04:27;97265.91;;;23.88;91.44
44001;BME280;29660;42.892;24.710;2023-08-21T19:09:49;97291.06;;;23.81;91.92
44001;BME280;29660;42.892;24.710;2023-08-21T19:15:11;97189.78;;;23.19;95.02
44001;BME280;29660;42.892;24.710;2023-08-21T19:20:33;97178.47;;;22.94;94.36
44001;BME280;29660;42.892;24.710;2023-08-21T19:25:56;97209.47;;;23.12;94.47
44001;BME280;29660;42.892;24.710;2023-08-21T19:31:36;97287.09;;;23.52;95.46
44001;BME280;29660;42.892;24.710;2023-08-21T19:36:59;97290.81;;;23.40;95.26
44001;BME280;29660;42.892;24.710;2023-08-21T19:42:21;97291.47;;;23.34;95.06
44001;BME280;29660;42.892;24.710;2023-08-21T19:47:45;97291.50;;;23.14;98.09
44001;BME280;29660;42.892;24.710;2023-08-21T19:53:08;97296.53;;;23.12;98.65
44001;BME280;29660;42.892;24.710;2023-08-21T19:58:30;97299.97;;;22.90;100.00
44001;BME280;29660;42.892;24.710;2023-08-21T20:03:52;97304.78;;;22.77;100.00
44001;BME280;29660;42.892;24.710;2023-08-21T20:09:15;97021.25;;;20.75;100.00
44001;BME280;29660;42.892;24.710;2023-08-21T20:14:38;97160.78;;;21.64;100.00
44001;BME280;29660;42.892;24.710;2023-08-21T20:20:00;97152.75;;;21.52;100.00
44001;BME280;29660;42.892;24.710;2023-08-21T20:25:22;96887.06;;;19.67;100.00
44001;BME280;29660;42.892;24.710;2023-08-21T20:30:44;97235.69;;;21.85;100.00
44001;BME280;29660;42.892;24.710;2023-08-21T20:36:07;97293.19;;;22.06;100.00
44001;BME280;29660;42.892;24.710;2023-08-21T20:41:29;97295.94;;;21.90;100.00
44001;BME280;29660;42.892;24.710;2023-08-21T20:46:51;97278.97;;;21.77;100.00
44001;BME280;29660;42.892;24.710;2023-08-21T20:52:13;97288.97;;;21.73;100.00
44001;BME280;29660;42.892;24.710;2023-08-21T20:57:36;97291.63;;;21.54;100.00
44001;BME280;29660;42.892;24.710;2023-08-21T21:02:58;97294.94;;;21.47;100.00
44001;BME280;29660;42.892;24.710;2023-08-21T21:08:21;96998.03;;;19.55;100.00
44001;BME280;29660;42.892;24.710;2023-08-21T21:14:02;97308.13;;;21.49;100.00
44001;BME280;29660;42.892;24.710;2023-08-21T21:19:24;97305.50;;;21.37;100.00
44001;BME280;29660;42.892;24.710;2023-08-21T21:24:47;97313.22;;;21.35;100.00
44001;BME280;29660;42.892;24.710;2023-08-21T21:30:09;96924.38;;;18.77;100.00
44001;BME280;29660;42.892;24.710;2023-08-21T21:35:31;97320.09;;;21.16;100.00
44001;BME280;29660;42.892;24.710;2023-08-21T21:41:12;97304.66;;;21.04;100.00
44001;BME280;29660;42.892;24.710;2023-08-21T21:46:34;97214.16;;;20.37;100.00
44001;BME280;29660;42.892;24.710;2023-08-21T21:51:56;97315.72;;;20.83;100.00
44001;BME280;29660;42.892;24.710;2023-08-21T21:57:19;97235.22;;;20.16;100.00
44001;BME280;29660;42.892;24.710;2023-08-21T22:02:41;97265.56;;;20.21;100.00
44001;BME280;29660;42.892;24.710;2023-08-21T22:08:04;97339.75;;;20.57;100.00
44001;BME280;29660;42.892;24.710;2023-08-21T22:13:26;97343.72;;;20.59;100.00
44001;BME280;29660;42.892;24.710;2023-08-21T22:18:48;97329.38;;;20.47;100.00
44001;BME280;29660;42.892;24.710;2023-08-21T22:24:11;97307.53;;;20.15;100.00
44001;BME280;29660;42.892;24.710;2023-08-21T22:29:33;97334.50;;;20.36;100.00
44001;BME280;29660;42.892;24.710;2023-08-21T22:34:55;97315.34;;;20.17;100.00
44001;BME280;29660;42.892;24.710;2023-08-21T22:40:17;97326.47;;;20.27;100.00
44001;BME280;29660;42.892;24.710;2023-08-21T22:45:40;97235.69;;;19.65;100.00
44001;BME280;29660;42.892;24.710;2023-08-21T22:51:03;97318.16;;;20.20;100.00
44001;BME280;29660;42.892;24.710;2023-08-21T22:56:26;97235.84;;;19.60;100.00
44001;BME280;29660;42.892;24.710;2023-08-21T23:01:48;97321.31;;;20.10;100.00
44001;BME280;29660;42.892;24.710;2023-08-21T23:07:11;97322.78;;;19.95;100.00
44001;BME280;29660;42.892;24.710;2023-08-21T23:12:33;97316.16;;;19.93;100.00
44001;BME280;29660;42.892;24.710;2023-08-21T23:17:56;97325.41;;;19.92;100.00
44001;BME280;29660;42.892;24.710;2023-08-21T23:23:19;97316.97;;;19.81;100.00
44001;BME280;29660;42.892;24.710;2023-08-21T23:28:41;96909.16;;;17.17;100.00
44001;BME280;29660;42.892;24.710;2023-08-21T23:34:03;97321.56;;;19.80;100.00
44001;BME280;29660;42.892;24.710;2023-08-21T23:39:45;97195.50;;;19.06;100.00
44001;BME280;29660;42.892;24.710;2023-08-21T23:45:07;97308.50;;;19.70;100.00
44001;BME280;29660;42.892;24.710;2023-08-21T23:50:30;97309.91;;;19.55;100.00
44001;BME280;29660;42.892;24.710;2023-08-21T23:55:53;97307.56;;;19.42;100.00
